Time;durP1;ratioP1;P1;durP2;ratioP2;P2;SDS_P1;SDS_P2;PMS_P1;PMS_P2;Temp;Humidity;BMP_temperature;BMP_pressure;BME280_temperature;BME280_humidity;BME280_pressure;Samples;Min_cycle;Max_cycle;Signal;HPM_P1;HPM_P2
2023/02/20 00:00:51;;;;;;;11.05;7.07;;;;;;;7.31;100.00;102464.16;5094109;28;20051;-65
2023/02/20 00:03:20;;;;;;;13.57;7.72;;;;;;;7.30;100.00;102472.47;5095276;28;20059;-66
2023/02/20 00:05:47;;;;;;;11.20;7.63;;;;;;;7.30;100.00;102464.34;5095399;27;20094;-63
2023/02/20 00:08:15;;;;;;;11.75;6.47;;;;;;;7.32;100.00;102463.09;5076177;28;20048;-64
2023/02/20 00:10:43;;;;;;;11.23;6.85;;;;;;;7.35;100.00;102462.69;5094410;28;20545;-63
2023/02/20 00:13:10;;;;;;;11.07;7.28;;;;;;;7.36;100.00;102463.50;5093818;28;20071;-64
2023/02/20 00:15:39;;;;;;;9.98;6.13;;;;;;;7.37;100.00;102471.44;5110918;27;20051;-64
2023/02/20 00:18:07;;;;;;;11.48;5.95;;;;;;;7.39;100.00;102463.13;5113092;28;20044;-65
2023/02/20 00:20:36;;;;;;;11.43;6.70;;;;;;;7.38;100.00;102464.97;5113063;28;20048;-63
2023/02/20 00:23:03;;;;;;;11.30;6.97;;;;;;;7.38;100.00;102467.69;5111019;28;20446;-64
2023/02/20 00:25:31;;;;;;;10.20;5.93;;;;;;;7.40;100.00;102464.78;5113329;27;20036;-64
2023/02/20 00:27:59;;;;;;;10.90;6.40;;;;;;;7.39;100.00;102457.69;5114271;28;20048;-64
2023/02/20 00:30:27;;;;;;;9.32;5.65;;;;;;;7.39;100.00;102455.81;5113557;28;20415;-64
2023/02/20 00:32:56;;;;;;;11.48;5.93;;;;;;;7.39;100.00;102444.13;5101676;28;20056;-65
2023/02/20 00:35:25;;;;;;;10.13;5.90;;;;;;;7.42;100.00;102441.00;5094170;28;20047;-64
2023/02/20 00:37:53;;;;;;;10.82;5.85;;;;;;;7.41;100.00;102431.22;5111106;28;20127;-65
2023/02/20 00:40:22;;;;;;;11.57;6.50;;;;;;;7.43;100.00;102437.22;5095877;28;20509;-65
2023/02/20 00:42:50;;;;;;;10.27;5.72;;;;;;;7.45;100.00;102427.03;5087742;28;20032;-64
2023/02/20 00:45:18;;;;;;;11.95;6.63;;;;;;;7.40;100.00;102419.50;5093316;28;20122;-64
2023/02/20 00:47:46;;;;;;;11.73;6.30;;;;;;;7.46;100.00;102409.72;5111255;28;20446;-65
2023/02/20 00:50:15;;;;;;;10.20;6.25;;;;;;;7.46;100.00;102394.28;5112655;28;20047;-64
2023/02/20 00:52:44;;;;;;;10.88;7.15;;;;;;;7.41;100.00;102388.66;5112291;28;20142;-64
2023/02/20 00:55:12;;;;;;;9.43;5.45;;;;;;;7.44;100.00;102392.81;5095869;28;20047;-64
2023/02/20 00:57:40;;;;;;;10.43;5.95;;;;;;;7.47;100.00;102389.69;5098368;27;20056;-64
2023/02/20 01:00:11;;;;;;;12.10;7.53;;;;;;;7.41;100.00;102396.78;5093597;28;20081;-64
2023/02/20 01:02:39;;;;;;;12.63;7.32;;;;;;;7.39;100.00;102404.28;5104106;28;20051;-64
2023/02/20 01:05:07;;;;;;;13.32;7.22;;;;;;;7.35;100.00;102400.31;5093258;28;20052;-65
2023/02/20 01:07:35;;;;;;;12.18;7.75;;;;;;;7.33;100.00;102410.53;5102545;28;20055;-65
2023/02/20 01:10:03;;;;;;;10.93;6.10;;;;;;;7.39;100.00;102398.03;5095478;28;20509;-64
2023/02/20 01:12:32;;;;;;;10.70;6.45;;;;;;;7.39;100.00;102408.88;5083883;28;20048;-64
2023/02/20 01:15:00;;;;;;;16.52;7.95;;;;;;;7.34;100.00;102401.38;5091738;28;20052;-64
2023/02/20 01:17:28;;;;;;;13.02;7.43;;;;;;;7.33;100.00;102402.41;5095844;28;20479;-65
2023/02/20 01:19:56;;;;;;;13.70;7.63;;;;;;;7.32;100.00;102411.59;5111734;28;20054;-65
2023/02/20 01:22:23;;;;;;;12.48;7.43;;;;;;;7.33;100.00;102402.41;5094738;28;20036;-65
2023/02/20 01:24:51;;;;;;;10.65;6.90;;;;;;;7.30;100.00;102404.69;5103702;28;20044;-64
2023/02/20 01:27:19;;;;;;;13.57;7.03;;;;;;;7.31;100.00;102407.22;5092651;28;20051;-65
2023/02/20 01:29:46;;;;;;;11.70;6.63;;;;;;;7.30;100.00;102402.00;5110777;28;20116;-65
2023/02/20 01:32:14;;;;;;;14.07;7.63;;;;;;;7.30;100.00;102385.72;5099160;28;20040;-65
2023/02/20 01:34:43;;;;;;;11.18;6.35;;;;;;;7.37;100.00;102386.56;5075094;28;20051;-66
2023/02/20 01:37:13;;;;;;;13.13;7.80;;;;;;;7.33;100.00;102379.88;5091359;28;20492;-65
2023/02/20 01:39:41;;;;;;;15.02;8.05;;;;;;;7.31;100.00;102368.41;5107026;28;20130;-64
2023/02/20 01:42:16;;;;;;;11.18;6.45;;;;;;;7.28;100.00;102369.66;5096353;28;20043;-66
2023/02/20 01:44:44;;;;;;;12.25;7.00;;;;;;;7.24;100.00;102363.81;5092769;28;20074;-65
2023/02/20 01:47:17;;;;;;;10.45;6.28;;;;;;;7.25;100.00;102354.63;5095680;28;20127;-65
2023/02/20 01:49:59;;;;;;;12.52;6.97;;;;;;;7.24;100.00;102341.31;5104824;28;20054;-66
2023/02/20 01:52:29;;;;;;;11.05;6.00;;;;;;;7.25;100.00;102322.09;5096602;28;20127;-64
2023/02/20 01:55:00;;;;;;;12.40;6.95;;;;;;;7.21;100.00;102318.13;5074875;28;20047;-64
2023/02/20 01:57:31;;;;;;;15.43;8.32;;;;;;;7.24;100.00;102308.78;5091070;28;20101;-64
2023/02/20 02:00:09;;;;;;;14.73;8.20;;;;;;;7.23;100.00;102302.50;5098744;28;20046;-64
2023/02/20 02:03:15;;;;;;;12.45;7.13;;;;;;;7.25;100.00;102292.28;5110161;28;20058;-65
2023/02/20 02:05:46;;;;;;;7.88;5.22;;;;;;;7.36;100.00;102279.13;5090773;28;20487;-64
2023/02/20 02:08:15;;;;;;;12.48;6.57;;;;;;;7.53;100.00;102274.94;5112622;28;20126;-64
2023/02/20 02:10:50;;;;;;;13.50;6.80;;;;;;;7.40;100.00;102285.81;5075367;28;20085;-64
2023/02/20 02:13:19;;;;;;;15.02;8.30;;;;;;;7.22;100.00;102287.28;5061711;28;20055;-64
2023/02/20 02:15:51;;;;;;;15.57;7.93;;;;;;;7.17;100.00;102292.50;5094828;28;20455;-65
2023/02/20 02:18:29;;;;;;;12.57;7.68;;;;;;;7.11;100.00;102292.50;5095659;28;20131;-65
2023/02/20 02:21:31;;;;;;;14.85;8.10;;;;;;;7.08;100.00;102288.34;5096119;28;20071;-66
2023/02/20 02:24:10;;;;;;;14.40;8.25;;;;;;;7.11;100.00;102284.38;5095065;28;20053;-66
2023/02/20 02:27:05;;;;;;;13.80;7.88;;;;;;;7.03;100.00;102280.00;5090614;28;20044;-66
2023/02/20 02:30:08;;;;;;;16.35;8.10;;;;;;;7.04;100.00;102274.34;5112679;27;20058;-64
2023/02/20 02:33:03;;;;;;;15.25;7.85;;;;;;;7.07;100.00;102280.41;5102216;28;20047;-64
2023/02/20 02:35:56;;;;;;;16.58;8.23;;;;;;;7.03;100.00;102285.41;5115436;28;20043;-64
2023/02/20 02:38:32;;;;;;;16.08;7.85;;;;;;;7.06;100.00;102273.31;5115035;27;20130;-64
2023/02/20 02:41:05;;;;;;;10.93;5.30;;;;;;;7.02;100.00;102276.47;5113699;28;20411;-64
2023/02/20 02:43:35;;;;;;;17.40;8.90;;;;;;;7.03;100.00;102259.16;5116604;28;20071;-63
2023/02/20 02:46:21;;;;;;;15.63;8.80;;;;;;;7.02;100.00;102275.59;5116029;28;20153;-65
2023/02/20 02:49:11;;;;;;;14.30;7.70;;;;;;;7.03;100.00;102269.16;5084892;28;20400;-63
2023/02/20 02:51:44;;;;;;;15.75;7.82;;;;;;;7.03;100.00;102269.16;5116181;28;20040;-58
2023/02/20 02:54:15;;;;;;;16.35;9.32;;;;;;;7.08;100.00;102274.78;5121736;27;20437;-63
2023/02/20 02:56:46;;;;;;;18.83;10.10;;;;;;;7.04;100.00;102257.25;5118745;28;20065;-60
2023/02/20 02:59:26;;;;;;;18.02;10.13;;;;;;;6.99;100.00;102262.47;5135233;28;20103;-63
2023/02/20 03:01:57;;;;;;;17.67;9.80;;;;;;;7.03;100.00;102258.31;5133418;28;20075;-62
2023/02/20 03:04:28;;;;;;;19.23;10.85;;;;;;;7.02;100.00;102262.06;5116127;28;20123;-64
2023/02/20 03:07:03;;;;;;;23.42;12.38;;;;;;;7.06;100.00;102257.06;5078854;28;20062;-65
2023/02/20 03:10:03;;;;;;;20.63;12.65;;;;;;;7.08;100.00;102252.28;5077378;28;20390;-66
2023/02/20 03:12:37;;;;;;;21.45;12.02;;;;;;;7.03;100.00;102263.75;5085676;28;20063;-66
2023/02/20 03:15:32;;;;;;;21.02;12.57;;;;;;;7.03;100.00;102261.03;5076484;28;20050;-65
2023/02/20 03:18:09;;;;;;;;;;;;;;;6.99;100.00;102267.91;5095172;28;20047;-65
2023/02/20 03:20:44;;;;;;;23.10;12.50;;;;;;;6.99;100.00;102246.22;5094193;28;19986;-66
2023/02/20 03:23:16;;;;;;;20.55;13.40;;;;;;;6.99;100.00;102246.22;5096644;27;20066;-66
2023/02/20 03:25:55;;;;;;;23.15;13.93;;;;;;;6.99;100.00;102244.34;5084625;28;20127;-65
2023/02/20 03:28:26;;;;;;;18.48;12.52;;;;;;;6.99;100.00;102243.50;5093542;28;20079;-66
2023/02/20 03:30:55;;;;;;;23.33;14.80;;;;;;;6.95;100.00;102240.41;5095758;28;20040;-66
2023/02/20 03:44:54;;;;;;;21.40;14.57;;;;;;;6.99;100.00;102232.69;5078749;28;20074;-65
2023/02/20 03:47:25;;;;;;;18.42;12.77;;;;;;;6.98;100.00;102231.03;5093081;28;20119;-65
2023/02/20 03:49:54;;;;;;;23.52;14.88;;;;;;;7.03;100.00;102236.63;5076607;28;20064;-65
2023/02/20 03:52:22;;;;;;;26.45;15.40;;;;;;;7.01;100.00;102233.31;5112680;28;20040;-65
2023/02/20 03:54:50;;;;;;;24.05;14.43;;;;;;;7.06;100.00;102233.50;5103215;27;20039;-65
2023/02/20 03:57:23;;;;;;;25.17;14.93;;;;;;;7.04;100.00;102232.88;5076308;28;20044;-65
2023/02/20 04:00:01;;;;;;;26.40;14.63;;;;;;;7.09;100.00;102241.19;5078597;27;20052;-65
2023/02/20 04:02:33;;;;;;;25.88;15.85;;;;;;;7.06;100.00;102236.22;5105854;28;20048;-65
2023/02/20 04:05:05;;;;;;;23.48;15.10;;;;;;;7.06;100.00;102236.22;5103255;27;20507;-64
2023/02/20 04:07:53;;;;;;;24.80;16.17;;;;;;;7.05;100.00;102245.41;5094934;28;20055;-63
2023/02/20 04:10:27;;;;;;;23.77;14.98;;;;;;;7.03;100.00;102242.06;5112805;28;20491;-65
2023/02/20 04:12:56;;;;;;;20.88;13.00;;;;;;;7.09;100.00;102240.38;5096408;28;20043;-65
2023/02/20 04:15:24;;;;;;;25.73;16.50;;;;;;;7.07;100.00;102243.31;5078566;28;20042;-64
2023/02/20 04:18:04;;;;;;;23.13;13.55;;;;;;;7.08;100.00;102244.97;5112445;28;20114;-65
2023/02/20 04:20:32;;;;;;;21.20;14.45;;;;;;;7.08;100.00;102241.44;5091000;28;20052;-65
2023/02/20 04:23:14;;;;;;;23.70;14.80;;;;;;;7.08;100.00;102241.44;5092426;28;20123;-64
2023/02/20 04:25:50;;;;;;;24.52;15.57;;;;;;;7.06;100.00;102246.22;5099761;28;20046;-66
2023/02/20 04:28:18;;;;;;;26.88;15.65;;;;;;;7.08;100.00;102236.84;5114139;28;20055;-64
2023/02/20 04:30:53;;;;;;;20.95;14.95;;;;;;;7.08;100.00;102239.56;5096752;28;20047;-64
2023/02/20 04:33:21;;;;;;;25.15;15.43;;;;;;;7.10;100.00;102240.19;5109943;28;20463;-66
2023/02/20 04:35:52;;;;;;;24.30;15.15;;;;;;;7.08;100.00;102247.69;5112537;27;20050;-66
2023/02/20 04:38:21;;;;;;;22.58;13.75;;;;;;;7.05;100.00;102245.41;5112688;28;20050;-65
2023/02/20 04:40:49;;;;;;;21.05;13.35;;;;;;;7.06;100.00;102247.06;5098972;28;20403;-65
2023/02/20 04:43:18;;;;;;;26.92;15.85;;;;;;;7.07;100.00;102243.31;5102822;28;20059;-64
2023/02/20 04:45:46;;;;;;;27.92;15.60;;;;;;;7.06;100.00;102249.75;5113734;28;20044;-65
2023/02/20 04:48:14;;;;;;;22.10;14.55;;;;;;;7.08;100.00;102250.38;5094798;28;20075;-66
2023/02/20 04:50:42;;;;;;;24.17;14.18;;;;;;;7.06;100.00;102251.66;5124754;28;20069;-65
2023/02/20 04:53:12;;;;;;;22.02;13.50;;;;;;;7.06;100.00;102247.06;5114898;28;20047;-66
2023/02/20 04:55:39;;;;;;;22.13;13.68;;;;;;;7.06;100.00;102252.47;5097139;28;20044;-66
2023/02/20 04:58:11;;;;;;;22.80;14.52;;;;;;;7.07;100.00;102242.47;5094704;28;20099;-66
2023/02/20 05:00:52;;;;;;;21.63;13.80;;;;;;;7.07;100.00;102247.88;5114464;28;20036;-65
2023/02/20 05:03:19;;;;;;;22.23;13.85;;;;;;;7.07;100.00;102247.88;5111541;28;20481;-65
2023/02/20 05:05:47;;;;;;;24.08;14.43;;;;;;;7.07;100.00;102240.59;5110952;28;20055;-65
2023/02/20 05:08:15;;;;;;;22.90;14.43;;;;;;;7.03;100.00;102242.06;5111350;28;20047;-65
2023/02/20 05:10:42;;;;;;;21.83;14.10;;;;;;;7.04;100.00;102249.13;5110148;28;20427;-65
2023/02/20 05:13:10;;;;;;;26.65;14.98;;;;;;;7.07;100.00;102248.75;5113090;28;20070;-65
2023/02/20 05:15:37;;;;;;;27.48;15.05;;;;;;;7.06;100.00;102246.22;5111940;28;20073;-66
2023/02/20 05:18:05;;;;;;;24.40;14.65;;;;;;;7.08;100.00;102249.56;5101353;28;20127;-66
2023/02/20 05:23:19;;;;;;;21.83;13.82;;;;;;;7.12;100.00;102245.38;5113868;28;20475;-66
2023/02/20 05:25:48;;;;;;;26.23;15.95;;;;;;;7.09;100.00;102241.19;5118962;28;20047;-66
2023/02/20 05:28:15;;;;;;;25.83;15.00;;;;;;;7.09;100.00;102238.50;5083191;28;20058;-65
2023/02/20 05:30:43;;;;;;;19.30;12.07;;;;;;;7.11;100.00;102241.84;5095804;28;20097;-64
2023/02/20 05:33:11;;;;;;;24.10;15.05;;;;;;;7.09;100.00;102238.50;5095380;28;20058;-64
2023/02/20 05:35:39;;;;;;;21.42;14.55;;;;;;;7.09;100.00;102234.97;5093565;28;20048;-65
2023/02/20 05:38:07;;;;;;;23.35;14.55;;;;;;;7.09;100.00;102241.19;5092647;28;20499;-67
2023/02/20 05:40:34;;;;;;;23.27;14.43;;;;;;;7.10;100.00;102242.88;5107780;28;20055;-67
2023/02/20 05:43:02;;;;;;;24.27;14.20;;;;;;;7.11;100.00;102239.13;5113090;28;20502;-66
2023/02/20 05:45:30;;;;;;;22.38;13.35;;;;;;;7.15;100.00;102240.38;5116572;28;20081;-67
2023/02/20 05:47:57;;;;;;;23.77;14.63;;;;;;;7.13;100.00;102233.50;5095760;28;20126;-66
2023/02/20 05:50:25;;;;;;;27.63;14.32;;;;;;;7.18;100.00;102239.94;5101993;27;20040;-66
2023/02/20 05:52:53;;;;;;;24.65;15.45;;;;;;;7.16;100.00;102241.22;5103634;27;20047;-65
2023/02/20 05:55:21;;;;;;;24.75;14.60;;;;;;;7.15;100.00;102240.38;5098932;28;20487;-66
2023/02/20 05:57:48;;;;;;;23.70;14.40;;;;;;;7.14;100.00;102243.28;5116521;28;20119;-65
2023/02/20 06:00:16;;;;;;;22.23;13.93;;;;;;;7.14;100.00;102244.13;5116331;28;20103;-66
2023/02/20 06:02:44;;;;;;;22.00;13.65;;;;;;;7.15;100.00;102232.25;5108282;28;20051;-66
2023/02/20 06:05:12;;;;;;;23.85;15.07;;;;;;;7.15;100.00;102234.97;5094558;28;20519;-66
2023/02/20 06:07:41;;;;;;;21.80;14.32;;;;;;;7.17;100.00;102232.88;5102919;27;20062;-65
2023/02/20 06:10:09;;;;;;;21.25;12.68;;;;;;;7.17;100.00;102235.59;5115674;28;20129;-65
2023/02/20 06:12:37;;;;;;;20.38;12.23;;;;;;;7.17;100.00;102222.03;5115445;27;20093;-65
2023/02/20 06:15:05;;;;;;;20.60;13.25;;;;;;;7.18;100.00;102231.00;5112635;27;20484;-65
2023/02/20 06:17:32;;;;;;;28.25;13.45;;;;;;;7.16;100.00;102233.06;5115132;28;20051;-65
2023/02/20 06:20:00;;;;;;;21.98;12.95;;;;;;;7.20;100.00;102231.63;5116450;28;20048;-65
2023/02/20 06:22:28;;;;;;;19.90;13.68;;;;;;;7.18;100.00;102234.53;5114871;27;20056;-65
2023/02/20 06:24:55;;;;;;;26.02;13.77;;;;;;;7.20;100.00;102243.28;5115675;28;20043;-65
2023/02/20 06:27:24;;;;;;;21.73;12.63;;;;;;;7.19;100.00;102236.22;5097803;28;20039;-65
2023/02/20 06:29:51;;;;;;;24.38;13.50;;;;;;;7.18;100.00;102239.13;5114839;28;20138;-65
2023/02/20 06:32:19;;;;;;;19.95;12.13;;;;;;;7.19;100.00;102247.06;5095462;27;20119;-65
2023/02/20 06:34:47;;;;;;;19.98;11.43;;;;;;;7.24;100.00;102238.28;5099394;27;20043;-65
2023/02/20 06:37:15;;;;;;;21.90;12.65;;;;;;;7.22;100.00;102246.63;5099274;27;20040;-64
2023/02/20 06:39:46;;;;;;;24.42;13.55;;;;;;;7.20;100.00;102248.72;5106641;28;20055;-64
2023/02/20 06:42:15;;;;;;;24.50;13.55;;;;;;;7.24;100.00;102244.53;5098367;27;20051;-67
2023/02/20 06:44:43;;;;;;;25.10;13.35;;;;;;;7.21;100.00;102238.69;5077869;28;20083;-65
2023/02/20 06:47:11;;;;;;;22.85;12.82;;;;;;;7.27;100.00;102231.63;5097199;28;20056;-64
2023/02/20 06:49:40;;;;;;;22.80;13.80;;;;;;;7.26;100.00;102230.75;5100457;28;20110;-66
2023/02/20 06:52:09;;;;;;;22.75;13.10;;;;;;;7.21;100.00;102231.38;5099304;28;20059;-64
2023/02/20 06:54:36;;;;;;;18.95;11.63;;;;;;;7.24;100.00;102238.28;5096873;27;20468;-64
2023/02/20 06:57:04;;;;;;;23.38;13.93;;;;;;;7.20;100.00;102243.28;5094220;27;20054;-66
2023/02/20 06:59:38;;;;;;;25.20;14.60;;;;;;;7.20;100.00;102237.88;5078903;28;20036;-66
2023/02/20 07:02:10;;;;;;;22.63;13.48;;;;;;;7.25;100.00;102234.53;5108123;27;20071;-65
2023/02/20 07:04:38;;;;;;;26.30;16.90;;;;;;;7.24;100.00;102232.88;4744666;27;9999906;-65
2023/02/20 07:07:06;;;;;;;21.35;12.82;;;;;;;7.25;100.00;102232.66;5073549;28;20761;-66
2023/02/20 07:09:33;;;;;;;27.52;17.38;;;;;;;7.25;100.00;102235.34;5099401;28;20052;-65
2023/02/20 07:12:01;;;;;;;15.60;9.65;;;;;;;7.29;100.00;102230.34;5100524;27;20056;-64
2023/02/20 07:14:29;;;;;;;23.67;14.23;;;;;;;7.26;100.00;102236.19;5107075;28;20039;-67
2023/02/20 07:16:56;;;;;;;28.23;19.15;;;;;;;7.25;100.00;102250.78;5111043;28;20051;-67
2023/02/20 07:19:24;;;;;;;26.60;17.17;;;;;;;7.22;100.00;102245.81;5108076;28;20066;-67
2023/02/20 07:21:52;;;;;;;28.30;18.83;;;;;;;7.24;100.00;102241.00;5109476;27;20071;-67
2023/02/20 07:24:19;;;;;;;23.60;14.88;;;;;;;7.30;100.00;102244.75;5114965;28;20052;-68
2023/02/20 07:26:47;;;;;;;27.85;18.90;;;;;;;7.28;100.00;102230.56;5118603;28;20087;-67
2023/02/20 07:29:15;;;;;;;29.88;18.77;;;;;;;7.31;100.00;102227.41;5120376;28;20059;-66
2023/02/20 07:31:43;;;;;;;26.45;18.35;;;;;;;7.27;100.00;102231.63;5112807;27;20152;-67
2023/02/20 07:34:10;;;;;;;28.58;18.92;;;;;;;7.29;100.00;102222.22;5117436;28;20047;-67
2023/02/20 07:36:40;;;;;;;27.70;18.80;;;;;;;7.31;100.00;102232.84;5114378;28;20036;-67
2023/02/20 07:39:09;;;;;;;28.60;20.85;;;;;;;7.24;100.00;102239.13;5096624;28;20127;-65
2023/02/20 07:41:36;;;;;;;30.05;20.48;;;;;;;7.19;100.00;102238.94;5097326;28;20464;-65
2023/02/20 07:44:06;;;;;;;30.20;20.83;;;;;;;7.16;100.00;102250.16;5102116;28;20051;-65
2023/02/20 07:46:33;;;;;;;29.80;21.13;;;;;;;7.16;100.00;102235.78;5095802;28;20048;-64
2023/02/20 07:49:03;;;;;;;27.80;20.33;;;;;;;7.16;100.00;102247.44;5098788;28;20074;-66
2023/02/20 07:51:32;;;;;;;28.83;19.42;;;;;;;7.17;100.00;102243.72;5101196;28;20047;-66
2023/02/20 07:53:59;;;;;;;27.52;18.70;;;;;;;7.21;100.00;102252.25;5098898;28;20131;-66
2023/02/20 07:56:27;;;;;;;28.85;19.45;;;;;;;7.22;100.00;102240.38;5098587;28;20131;-65
2023/02/20 07:58:54;;;;;;;24.75;14.98;;;;;;;7.24;100.00;102233.69;5102777;28;20452;-64
2023/02/20 08:01:22;;;;;;;24.40;15.95;;;;;;;7.30;100.00;102231.19;5099956;28;20055;-67
2023/02/20 08:03:50;;;;;;;28.17;19.80;;;;;;;7.31;100.00;102220.13;5115415;28;20394;-65
2023/02/20 08:06:18;;;;;;;28.35;19.05;;;;;;;7.32;100.00;102218.25;5114129;28;20072;-66
2023/02/20 08:08:50;;;;;;;27.05;17.73;;;;;;;7.34;100.00;102219.72;5098014;28;20047;-65
2023/02/20 08:11:18;;;;;;;30.50;17.58;;;;;;;7.41;100.00;102225.13;5115297;28;20044;-66
2023/02/20 08:13:46;;;;;;;29.38;15.40;;;;;;;7.40;100.00;102223.44;5104077;28;20043;-67
2023/02/20 08:16:14;;;;;;;27.02;18.60;;;;;;;7.38;100.00;102220.94;5111640;28;20085;-65
2023/02/20 08:18:43;;;;;;;28.88;17.83;;;;;;;7.37;100.00;102226.59;5109273;28;20048;-66
2023/02/20 08:21:11;;;;;;;29.55;18.05;;;;;;;7.41;100.00;102223.25;5094130;28;20118;-65
2023/02/20 08:23:38;;;;;;;30.38;17.25;;;;;;;7.44;100.00;102221.97;5093473;28;20395;-65
2023/02/20 08:26:06;;;;;;;28.65;18.25;;;;;;;7.42;100.00;102219.47;5075957;28;20056;-66
2023/02/20 08:28:34;;;;;;;28.02;16.95;;;;;;;7.44;100.00;102219.28;5093609;28;20127;-66
2023/02/20 08:31:02;;;;;;;24.63;16.52;;;;;;;7.45;100.00;102227.16;5112193;28;20063;-67
2023/02/20 08:33:29;;;;;;;24.85;16.30;;;;;;;7.43;100.00;102212.16;5112351;28;20058;-66
2023/02/20 08:35:57;;;;;;;30.13;17.13;;;;;;;7.51;100.00;102221.97;5113866;28;20047;-66
2023/02/20 08:38:25;;;;;;;23.63;16.75;;;;;;;7.46;100.00;102223.44;5113076;28;20116;-67
2023/02/20 08:40:52;;;;;;;30.33;17.58;;;;;;;7.48;100.00;102223.22;5112418;28;20047;-66
2023/02/20 08:43:21;;;;;;;23.52;16.67;;;;;;;7.47;100.00;102229.69;5108982;28;20055;-65
2023/02/20 08:45:48;;;;;;;30.15;17.75;;;;;;;7.47;100.00;102226.97;5075346;28;20055;-65
2023/02/20 08:48:16;;;;;;;25.35;17.77;;;;;;;7.46;100.00;102225.31;5093479;28;20109;-66
2023/02/20 08:50:45;;;;;;;29.45;19.05;;;;;;;7.41;100.00;102225.13;5094528;28;20511;-66
2023/02/20 08:53:14;;;;;;;26.27;18.77;;;;;;;7.41;100.00;102227.84;5093370;28;20075;-67
2023/02/20 08:55:42;;;;;;;25.65;18.27;;;;;;;7.38;100.00;102220.09;5100524;27;20054;-66
2023/02/20 08:58:10;;;;;;;30.20;19.10;;;;;;;7.37;100.00;102222.00;5113897;28;20082;-62
2023/02/20 09:00:38;;;;;;;27.52;18.88;;;;;;;7.39;100.00;102214.47;5100043;28;20044;-64
2023/02/20 09:03:07;;;;;;;30.02;18.67;;;;;;;7.42;100.00;102215.94;5108671;28;20047;-65
2023/02/20 09:05:35;;;;;;;30.98;18.73;;;;;;;7.43;100.00;102214.88;5113631;28;20059;-65
2023/02/20 09:08:06;;;;;;;27.45;16.17;;;;;;;7.44;100.00;102219.28;5114010;28;20056;-62
2023/02/20 09:10:34;;;;;;;26.77;16.85;;;;;;;7.49;100.00;102232.19;5111401;28;20077;-66
2023/02/20 09:13:02;;;;;;;29.05;15.82;;;;;;;7.53;100.00;102234.28;5116521;28;20043;-66
2023/02/20 09:15:34;;;;;;;29.23;14.38;;;;;;;7.62;100.00;102235.69;5114833;28;20131;-68
2023/02/20 09:18:04;;;;;;;27.58;15.82;;;;;;;7.62;100.00;102224.81;5116146;28;20063;-68
2023/02/20 09:20:32;;;;;;;27.02;17.50;;;;;;;7.61;100.00;102227.78;5107779;28;20055;-66
2023/02/20 09:23:00;;;;;;;29.58;15.60;;;;;;;7.67;100.00;102216.03;5101275;28;20052;-65
2023/02/20 09:25:27;;;;;;;27.13;16.30;;;;;;;7.75;100.00;102217.72;5097258;28;20040;-65
2023/02/20 09:27:55;;;;;;;25.33;15.15;;;;;;;7.76;100.00;102206.63;5096283;28;20055;-65
2023/02/20 09:30:23;;;;;;;25.67;14.80;;;;;;;7.71;100.00;102221.91;5098489;28;20381;-64
2023/02/20 09:32:51;;;;;;;25.20;15.63;;;;;;;7.64;100.00;102217.31;5095381;28;20066;-66
2023/02/20 09:35:23;;;;;;;30.10;15.82;;;;;;;7.65;100.00;102219.00;5095845;28;20044;-65
2023/02/20 09:37:51;;;;;;;23.65;14.43;;;;;;;7.64;100.00;102221.91;5095565;28;20456;-65
2023/02/20 09:40:22;;;;;;;27.23;16.25;;;;;;;7.69;100.00;102231.06;5110143;28;20047;-65
2023/02/20 09:42:59;;;;;;;24.90;14.07;;;;;;;7.73;100.00;102230.66;5115523;28;20052;-67
2023/02/20 09:45:30;;;;;;;18.85;12.23;;;;;;;7.69;100.00;102224.81;5116994;28;20054;-63
2023/02/20 09:48:12;;;;;;;21.50;13.98;;;;;;;7.67;100.00;102219.63;5115432;28;20040;-64
2023/02/20 09:51:01;;;;;;;24.88;14.25;;;;;;;7.78;100.00;102220.81;5115337;28;20035;-69
2023/02/20 09:53:53;;;;;;;23.33;12.77;;;;;;;7.89;100.00;102203.03;5115557;28;20044;-65
2023/02/20 09:56:47;;;;;;;23.42;13.13;;;;;;;7.89;100.00;102219.31;5116941;28;20040;-65
2023/02/20 09:59:18;;;;;;;24.52;12.75;;;;;;;7.86;100.00;102208.88;5096220;28;20146;-65
2023/02/20 10:02:35;;;;;;;24.17;13.95;;;;;;;7.93;100.00;102204.25;5094830;28;20044;-67
2023/02/20 10:05:18;;;;;;;24.15;13.98;;;;;;;7.94;100.00;102216.78;5052899;28;20139;-64
2023/02/20 10:07:46;;;;;;;26.00;12.73;;;;;;;7.93;100.00;102208.84;5094206;28;20055;-64
2023/02/20 10:10:25;;;;;;;21.55;14.57;;;;;;;7.92;100.00;102202.59;5078797;28;20055;-64
2023/02/20 10:13:23;;;;;;;28.17;16.52;;;;;;;7.90;100.00;102212.84;5095091;28;20492;-65
2023/02/20 10:15:54;;;;;;;26.88;15.68;;;;;;;7.89;100.00;102206.59;5094891;28;20059;-64
2023/02/20 10:18:57;;;;;;;21.95;15.63;;;;;;;7.90;100.00;102210.13;5097215;28;20044;-65
2023/02/20 10:21:55;;;;;;;25.70;16.45;;;;;;;7.97;100.00;102205.50;5115436;28;20055;-63
2023/02/20 10:24:41;;;;;;;26.75;17.25;;;;;;;8.06;100.00;102212.34;5098556;28;20394;-64
2023/02/20 10:27:50;;;;;;;27.93;16.63;;;;;;;8.00;100.00;102217.81;5098298;28;20119;-65
2023/02/20 10:30:30;;;;;;;26.80;17.23;;;;;;;7.92;100.00;102208.03;5104278;28;20043;-64
2023/02/20 10:33:17;;;;;;;20.80;11.68;;;;;;;7.96;100.00;102212.00;5099250;28;20052;-65
2023/02/20 10:35:55;;;;;;;27.90;13.85;;;;;;;8.04;100.00;102222.59;5087317;28;20048;-65
2023/02/20 10:38:27;;;;;;;32.28;17.75;;;;;;;7.98;100.00;102218.00;5121309;27;20079;-64
2023/02/20 10:41:16;;;;;;;27.58;18.00;;;;;;;7.93;100.00;102215.09;5103557;28;20048;-67
2023/02/20 10:44:14;;;;;;;25.30;18.20;;;;;;;7.92;100.00;102213.47;5111241;27;20043;-64
2023/02/20 10:47:10;;;;;;;27.35;17.85;;;;;;;7.93;100.00;102208.84;5114829;27;20047;-65
2023/02/20 10:50:03;;;;;;;32.08;19.70;;;;;;;7.93;100.00;102225.13;5116275;28;20058;-66
2023/02/20 10:52:45;;;;;;;24.08;16.27;;;;;;;7.95;100.00;102215.72;5115087;27;20074;-66
2023/02/20 10:55:22;;;;;;;34.97;20.42;;;;;;;7.94;100.00;102226.78;5115912;28;20087;-65
2023/02/20 10:58:16;;;;;;;30.45;20.40;;;;;;;7.95;100.00;102223.88;5077727;28;20146;-65
2023/02/20 11:00:55;;;;;;;31.30;20.10;;;;;;;7.96;100.00;102224.69;5109747;28;20044;-65
2023/02/20 11:03:42;;;;;;;31.35;20.23;;;;;;;7.96;100.00;102230.13;5114460;28;20134;-66
2023/02/20 11:06:15;;;;;;;28.15;18.35;;;;;;;7.93;100.00;102231.41;5086130;28;20051;-67
2023/02/20 11:08:43;;;;;;;30.20;20.60;;;;;;;7.88;100.00;102223.06;5093866;28;20110;-66
2023/02/20 11:11:17;;;;;;;33.85;21.10;;;;;;;7.88;100.00;102214.94;5094252;28;20048;-66
2023/02/20 11:13:45;;;;;;;28.17;20.00;;;;;;;7.89;100.00;102219.31;5101020;27;20036;-66
2023/02/20 11:16:45;;;;;;;31.75;19.65;;;;;;;7.88;100.00;102231.22;5093979;28;20134;-66
2023/02/20 11:19:21;;;;;;;29.00;18.52;;;;;;;7.88;100.00;102228.50;5058761;28;20063;-66
2023/02/20 11:21:50;;;;;;;;;;;;;;;8.01;100.00;102205.88;5077978;28;20052;-66
2023/02/20 11:24:30;;;;;;;25.70;16.25;;;;;;;7.95;100.00;102221.16;5103993;27;20243;-66
2023/02/20 11:27:05;;;;;;;26.27;14.20;;;;;;;7.94;100.00;102222.22;5090724;28;20047;-66
2023/02/20 11:29:41;;;;;;;31.87;15.60;;;;;;;7.94;100.00;102219.50;5110727;28;20051;-67
2023/02/20 11:32:24;;;;;;;26.58;14.20;;;;;;;7.96;100.00;102205.69;5103476;27;20391;-66
2023/02/20 11:35:16;;;;;;;25.30;15.52;;;;;;;7.95;100.00;102193.19;5115588;28;20067;-67
2023/02/20 11:37:48;;;;;;;23.45;13.50;;;;;;;7.96;100.00;102197.56;5112046;28;20504;-67
2023/02/20 11:40:30;;;;;;;23.45;13.52;;;;;;;7.98;100.00;102201.72;5113586;28;20134;-66
2023/02/20 11:43:18;;;;;;;26.02;13.40;;;;;;;7.97;100.00;102204.66;5099482;27;20055;-66
2023/02/20 11:45:46;;;;;;;27.92;13.65;;;;;;;8.02;100.00;102202.13;5099821;28;20070;-67
2023/02/20 11:48:14;;;;;;;20.15;11.15;;;;;;;8.02;100.00;102194.00;5071183;28;20047;-67
2023/02/20 11:50:52;;;;;;;23.20;12.02;;;;;;;8.04;100.00;102200.88;5087363;28;20052;-66